Airfield :







YOU CAN JOIN US ON...

 
LOGIN :

Register | Disclaimer

   EN    FR    IT 

 









Legend :    VFR   Marginal VFR   IFR   Intensive IFR   Very Intensive IFR
Visi :
Ceiling :
>= 8 km
>= 3000ft
5 to 8 km
1000 to 3000 ft
1500m to 5 km
500 to 1000 ft
800 to 1500m
200 to 500 ft
< 800m
< 200 ft
Symbols :   Thunderstorms  Fog  Heavy snow  Heavy precipitations  Wind > 20 kt







- Airport Elevation : 1808 ft
- IATA code : YWK


CYWK - Wabush

CURRENT METAR :
  • 181100Z 16004KT 15SM FEW240 M02/M03 A3031 RMK CI2 FROIN SLP294

EXPIRED METARs :
  • 181000Z 17005KT 15SM SKC M04/M05 A3030 RMK FROIN SLP290
  • 180942Z AUTO 17005KT 8SM CLR M04/M05 A3030 RMK SLP287
  • 180934Z AUTO 17004KT 5/8SM BR CLR M04/M05 A3029 RMK SLP286
  • 180918Z AUTO 16004KT 3/8SM FZFG FEW002 M04/M05 A3029 RMK SLP285
  • 180900Z AUTO 16004KT 9SM CLR M03/M04 A3029 RMK SLP285
  • 180848Z AUTO 17004KT 2 1/4SM BR CLR M03/M04 A3029 RMK SLP285
  • 180833Z AUTO 15003KT 1 3/4SM BR CLR M04/M05 A3029 RMK SLP285
  • 180811Z AUTO 17003KT 6SM BR CLR M04/M04 A3030 RMK SLP287

TAF TAF CYWK
Valid from the 18 at 08:00 until the 18 at 20:00 UTC


180738Z 1808/1820 VRB03KT 3/8SM FZFG SCT001
TEMPO 1808/1812 6SM BR FEW001
FM181200 29006KT P6SM FEW020
BECMG 1814/1816 30009KT RMK FCST BASED ON AUTO OBS. NXT FCST BY 181400Z
No reported NOTAMs for that airfield.



MET'MAP, your aeronautical weather chart ! - Copyright ORBIFLY December 2007 - Disclaimer

ORBIFLY MET'MAP TEAM :

Programming & Development : Alexandra Zaïnal
Concept & Development : Baudouin d'Aumeries
Co-Development & Prog : Marc-Olivier Méhu
Technical & hardware support : Manuel Goepfert

Contact : metmap@orbifly.com




SOURCES & CREDITS :

   NOAA